createdAt,value
2019-01-21T00:01:05.958Z,101927.02
2019-01-21T00:02:08.065Z,101926.28
2019-01-21T00:03:14.783Z,101926.83
2019-01-21T00:04:13.761Z,101922.40
2019-01-21T00:05:15.779Z,101924.25
2019-01-21T00:06:17.723Z,101923.50
2019-01-21T00:07:19.704Z,101922.76
2019-01-21T00:08:21.858Z,101917.18
2019-01-21T00:09:23.798Z,101916.81
2019-01-21T00:10:29.562Z,101911.23
2019-01-21T00:11:32.796Z,101913.09
2019-01-21T00:12:34.766Z,101911.04
2019-01-21T00:13:36.718Z,101907.14
2019-01-21T00:14:38.682Z,101909.73
2019-01-21T00:15:40.711Z,101913.27
2019-01-21T00:16:42.658Z,101906.39
2019-01-21T00:17:44.632Z,101904.53
2019-01-21T00:18:48.220Z,101910.29
2019-01-21T00:19:50.226Z,101914.19
2019-01-21T00:20:52.176Z,101908.61
2019-01-21T00:21:54.113Z,101908.06
2019-01-21T00:22:56.104Z,101904.16
2019-01-21T00:23:58.069Z,101907.69
2019-01-21T00:25:00.102Z,101907.14
2019-01-21T00:26:02.192Z,101901.56
2019-01-21T00:27:04.132Z,101898.41
2019-01-21T00:28:06.099Z,101900.83
2019-01-21T00:29:08.052Z,101894.87
2019-01-21T00:30:10.070Z,101891.34
2019-01-21T00:31:12.018Z,101897.11
2019-01-21T00:32:14.022Z,101890.97
2019-01-21T00:33:15.986Z,101885.22
2019-01-21T00:34:17.935Z,101888.19
2019-01-21T00:35:19.972Z,101884.84
2019-01-21T00:36:21.987Z,101883.73
2019-01-21T00:37:23.938Z,101883.37
2019-01-21T00:38:25.914Z,101885.97
2019-01-21T00:39:28.193Z,101884.48
2019-01-21T00:40:30.142Z,101880.58
2019-01-21T00:41:34.579Z,101881.14
2019-01-21T00:42:36.546Z,101880.03
2019-01-21T00:43:38.512Z,101878.73
2019-01-21T00:44:40.449Z,101882.26
2019-01-21T00:45:42.372Z,101872.60
2019-01-21T00:46:44.311Z,101874.27
2019-01-21T00:47:46.241Z,101872.05
2019-01-21T00:48:48.217Z,101870.75
2019-01-21T00:49:50.162Z,101864.62
2019-01-21T00:50:52.102Z,101863.69
2019-01-21T00:51:54.046Z,101865.33
2019-01-21T00:52:55.992Z,101865.33
2019-01-21T00:53:57.950Z,101860.87
2019-01-21T00:54:59.887Z,101860.50
2019-01-21T00:56:01.833Z,101853.45
2019-01-21T00:57:03.830Z,101856.42
2019-01-21T00:58:05.779Z,101853.83
2019-01-21T00:59:07.736Z,101857.72
2019-01-21T01:00:09.669Z,101850.63
2019-01-21T01:01:11.619Z,101856.80
2019-01-21T01:02:13.561Z,101852.31
2019-01-21T01:03:15.503Z,101849.33
2019-01-21T01:04:17.469Z,101844.88
2019-01-21T01:05:22.717Z,101846.18
2019-01-21T01:06:24.744Z,101842.66
2019-01-21T01:07:26.758Z,101837.45
2019-01-21T01:08:28.708Z,101839.50
2019-01-21T01:09:31.276Z,101840.42
2019-01-21T01:10:33.237Z,101845.62
2019-01-21T01:11:35.153Z,101843.03
2019-01-21T01:12:38.250Z,101841.72
2019-01-21T01:13:40.191Z,101839.50
2019-01-21T01:14:42.141Z,101849.16
2019-01-21T01:15:45.116Z,101839.87
2019-01-21T01:16:47.108Z,101844.15
2019-01-21T01:17:51.225Z,101848.42
2019-01-21T01:18:53.173Z,101853.25
2019-01-21T01:19:55.138Z,101855.48
2019-01-21T01:20:57.088Z,101857.52
2019-01-21T01:21:59.041Z,101857.15
2019-01-21T01:23:01.042Z,101857.52
2019-01-21T01:24:03.000Z,101853.07
2019-01-21T01:25:05.247Z,101854.37
2019-01-21T01:26:07.252Z,101848.24
2019-01-21T01:27:11.512Z,101861.25
2019-01-21T01:28:13.455Z,101857.34
2019-01-21T01:29:15.414Z,101859.39
2019-01-21T01:30:17.453Z,101854.19
2019-01-21T01:31:19.394Z,101852.34
2019-01-21T01:32:21.337Z,101853.27
2019-01-21T01:33:23.280Z,101856.23
2019-01-21T01:34:25.218Z,101854.02
2019-01-21T01:35:27.194Z,101855.87
2019-01-21T01:36:29.220Z,101854.02
2019-01-21T01:37:31.147Z,101854.73
2019-01-21T01:38:33.089Z,101854.56
2019-01-21T01:39:35.014Z,101855.69
2019-01-21T01:40:36.987Z,101856.23
2019-01-21T01:41:38.913Z,101855.69
2019-01-21T01:42:40.860Z,101855.47
2019-01-21T01:43:42.878Z,101848.22
2019-01-21T01:44:46.093Z,101843.98
2019-01-21T01:45:48.127Z,101846.37
2019-01-21T01:46:50.159Z,101842.09
2019-01-21T01:47:52.187Z,101837.64
2019-01-21T01:48:54.128Z,101834.67
2019-01-21T01:49:56.148Z,101842.09
2019-01-21T01:50:58.503Z,101836.34
2019-01-21T01:52:00.526Z,101839.31
2019-01-21T01:53:02.472Z,101834.11
2019-01-21T01:54:06.927Z,101838.02
2019-01-21T01:55:08.880Z,101837.46
2019-01-21T01:56:10.939Z,101835.79
2019-01-21T01:57:12.878Z,101826.69
2019-01-21T01:58:14.820Z,101826.69
2019-01-21T01:59:16.839Z,101819.27
2019-01-21T02:00:18.878Z,101822.23
2019-01-21T02:01:20.927Z,101817.78
2019-01-21T02:02:22.950Z,101820.56
2019-01-21T02:03:25.267Z,101816.48
2019-01-21T02:04:27.287Z,101818.33
2019-01-21T02:05:29.405Z,101818.70
2019-01-21T02:06:31.444Z,101814.80
2019-01-21T02:07:33.402Z,101812.95
2019-01-21T02:08:35.415Z,101809.05
2019-01-21T02:09:37.428Z,101807.75
2019-01-21T02:10:39.726Z,101815.55
2019-01-21T02:11:41.758Z,101816.30
2019-01-21T02:12:43.689Z,101812.95
2019-01-21T02:13:45.630Z,101821.68
2019-01-21T02:14:47.574Z,101819.83
2019-01-21T02:15:49.981Z,101817.78
2019-01-21T02:16:52.070Z,101823.91
2019-01-21T02:17:54.107Z,101814.25
2019-01-21T02:18:56.129Z,101813.33
2019-01-21T02:19:58.148Z,101816.48
2019-01-21T02:21:00.108Z,101805.16
2019-01-21T02:22:02.161Z,101810.91
2019-01-21T02:23:04.096Z,101813.33
2019-01-21T02:24:06.057Z,101809.98
2019-01-21T02:25:08.067Z,101809.98
2019-01-21T02:26:09.997Z,101809.05
2019-01-21T02:27:12.909Z,101809.80
2019-01-21T02:28:14.938Z,101807.20
2019-01-21T02:29:16.966Z,101802.55
2019-01-21T02:30:18.994Z,101803.85
2019-01-21T02:31:20.932Z,101803.48
2019-01-21T02:32:22.873Z,101804.03
2019-01-21T02:33:24.805Z,101803.11
2019-01-21T02:34:26.823Z,101802.36
2019-01-21T02:35:28.837Z,101802.91
2019-01-21T02:36:30.794Z,101799.38
2019-01-21T02:37:32.749Z,101793.80
2019-01-21T02:38:34.761Z,101796.03
2019-01-21T02:39:37.189Z,101790.46
2019-01-21T02:40:39.223Z,101785.47
2019-01-21T02:41:41.251Z,101785.81
2019-01-21T02:42:43.226Z,101786.77
2019-01-21T02:43:45.174Z,101787.33
2019-01-21T02:44:47.118Z,101781.75
2019-01-21T02:45:49.139Z,101779.70
2019-01-21T02:46:51.179Z,101778.77
2019-01-21T02:47:59.802Z,101777.47
2019-01-21T02:48:56.881Z,101772.82
2019-01-21T02:49:58.906Z,101769.84
2019-01-21T02:51:01.025Z,101762.05
2019-01-21T02:52:03.447Z,101758.14
2019-01-21T02:53:09.168Z,101756.84
2019-01-21T02:54:11.123Z,101755.72
2019-01-21T02:55:13.134Z,101753.13
2019-01-21T02:56:15.154Z,101748.30
2019-01-21T02:57:17.116Z,101750.14
2019-01-21T02:58:22.638Z,101754.05
2019-01-21T02:59:24.663Z,101748.84
2019-01-21T03:00:26.690Z,101751.06
2019-01-21T03:01:28.705Z,101755.90
2019-01-21T03:02:30.643Z,101752.92
2019-01-21T03:03:32.698Z,101751.63
2019-01-21T03:04:34.912Z,101747.72
2019-01-21T03:05:36.886Z,101746.97
2019-01-21T03:06:38.826Z,101738.98
2019-01-21T03:07:40.838Z,101746.42
2019-01-21T03:08:42.869Z,101752.17
2019-01-21T03:09:44.817Z,101744.20
2019-01-21T03:10:46.762Z,101745.49
2019-01-21T03:11:48.756Z,101744.74
2019-01-21T03:12:50.726Z,101746.05
2019-01-21T03:13:52.721Z,101747.34
2019-01-21T03:14:54.760Z,101742.14
2019-01-21T03:15:56.869Z,101743.82
2019-01-21T03:16:59.289Z,101742.89
2019-01-21T03:18:07.971Z,101743.82
2019-01-21T03:19:05.008Z,101740.30
2019-01-21T03:20:07.456Z,101743.45
2019-01-21T03:21:09.485Z,101740.47
2019-01-21T03:22:11.416Z,101739.55
2019-01-21T03:23:13.354Z,101739.55
2019-01-21T03:24:15.331Z,101739.55
2019-01-21T03:25:17.341Z,101735.64
2019-01-21T03:26:21.619Z,101731.37
2019-01-21T03:27:23.576Z,101738.24
2019-01-21T03:28:25.592Z,101739.92
2019-01-21T03:29:28.046Z,101744.37
2019-01-21T03:30:30.108Z,101745.67
2019-01-21T03:31:32.124Z,101741.77
2019-01-21T03:32:34.139Z,101740.47
2019-01-21T03:33:36.165Z,101739.75
2019-01-21T03:34:38.220Z,101743.66
2019-01-21T03:35:40.266Z,101744.95
2019-01-21T03:36:42.356Z,101739.17
2019-01-21T03:37:44.324Z,101736.94
2019-01-21T03:38:46.258Z,101738.80
2019-01-21T03:39:48.317Z,101742.14
2019-01-21T03:40:50.618Z,101741.77
2019-01-21T03:41:52.633Z,101736.56
2019-01-21T03:42:54.597Z,101738.80
2019-01-21T03:43:56.639Z,101741.05
2019-01-21T03:44:58.717Z,101735.64
2019-01-21T03:46:00.753Z,101738.80
2019-01-21T03:47:02.774Z,101732.29
2019-01-21T03:48:04.895Z,101726.75
2019-01-21T03:49:06.852Z,101721.34
2019-01-21T03:50:08.891Z,101717.06
2019-01-21T03:51:10.845Z,101715.39
2019-01-21T03:52:12.871Z,101713.91
2019-01-21T03:53:15.312Z,101711.31
2019-01-21T03:54:17.327Z,101714.08
2019-01-21T03:55:20.183Z,101710.56
2019-01-21T03:56:22.146Z,101710.94
2019-01-21T03:57:24.135Z,101706.66
2019-01-21T03:58:26.165Z,101708.33
2019-01-21T03:59:28.197Z,101711.48
2019-01-21T04:00:30.228Z,101709.26
2019-01-21T04:01:32.243Z,101711.48
2019-01-21T04:02:37.167Z,101714.45
2019-01-21T04:03:38.689Z,101710.56
2019-01-21T04:04:40.623Z,101705.36
2019-01-21T04:05:43.131Z,101703.88
2019-01-21T04:06:45.154Z,101715.39
2019-01-21T04:07:47.171Z,101709.08
2019-01-21T04:08:52.208Z,101711.86
2019-01-21T04:09:54.222Z,101709.26
2019-01-21T04:10:59.547Z,101706.11
2019-01-21T04:12:01.491Z,101704.43
2019-01-21T04:13:04.093Z,101703.12
2019-01-21T04:14:06.111Z,101704.05
2019-01-21T04:15:08.215Z,101707.58
2019-01-21T04:16:10.272Z,101700.16
2019-01-21T04:17:15.725Z,101695.33
2019-01-21T04:18:24.443Z,101697.55
2019-01-21T04:19:21.318Z,101692.35
2019-01-21T04:20:23.373Z,101692.35
2019-01-21T04:21:25.443Z,101692.17
2019-01-21T04:22:27.449Z,101691.42
2019-01-21T04:23:29.467Z,101688.45
2019-01-21T04:24:31.478Z,101687.73
2019-01-21T04:25:33.497Z,101687.73
2019-01-21T04:26:35.479Z,101679.72
2019-01-21T04:27:37.481Z,101684.17
2019-01-21T04:28:39.641Z,101675.82
2019-01-21T04:29:41.587Z,101684.17
2019-01-21T04:30:43.943Z,101674.52
2019-01-21T04:31:45.990Z,101676.75
2019-01-21T04:32:48.003Z,101668.56
2019-01-21T04:33:50.036Z,101672.84
2019-01-21T04:34:52.047Z,101672.84
2019-01-21T04:35:54.081Z,101673.59
2019-01-21T04:36:56.131Z,101665.42
2019-01-21T04:37:58.159Z,101673.59
2019-01-21T04:39:00.207Z,101671.55
2019-01-21T04:40:02.246Z,101668.39
2019-01-21T04:41:04.247Z,101672.47
2019-01-21T04:42:06.255Z,101664.12
2019-01-21T04:43:08.662Z,101663.74
2019-01-21T04:44:10.707Z,101656.69
2019-01-21T04:45:12.735Z,101655.94
2019-01-21T04:46:14.749Z,101647.59
2019-01-21T04:47:16.799Z,101646.29
2019-01-21T04:48:18.821Z,101644.98
2019-01-21T04:49:20.765Z,101656.69
2019-01-21T04:50:22.731Z,101650.73
2019-01-21T04:51:24.749Z,101652.79
2019-01-21T04:52:28.882Z,101644.23
2019-01-21T04:53:31.404Z,101645.53
2019-01-21T04:54:33.433Z,101651.11
2019-01-21T04:55:35.758Z,101643.69
2019-01-21T04:56:37.775Z,101641.64
2019-01-21T04:57:39.835Z,101642.39
2019-01-21T04:58:41.845Z,101636.81
2019-01-21T04:59:43.876Z,101648.14
2019-01-21T05:00:45.898Z,101632.36
2019-01-21T05:01:47.907Z,101644.61
2019-01-21T05:02:49.942Z,101647.21
2019-01-21T05:03:51.893Z,101641.09
2019-01-21T05:04:53.830Z,101642.02
2019-01-21T05:05:55.883Z,101638.86
2019-01-21T05:06:58.693Z,101637.73
2019-01-21T05:08:00.745Z,101630.31
2019-01-21T05:09:02.864Z,101628.08
2019-01-21T05:10:04.877Z,101625.48
2019-01-21T05:11:06.821Z,101627.70
2019-01-21T05:12:08.786Z,101628.63
2019-01-21T05:13:10.826Z,101624.18
2019-01-21T05:14:12.948Z,101618.98
2019-01-21T05:15:14.902Z,101624.18
2019-01-21T05:16:18.211Z,101621.58
2019-01-21T05:17:20.229Z,101628.08
2019-01-21T05:18:25.074Z,101636.44
2019-01-21T05:19:27.287Z,101638.11
2019-01-21T05:20:29.302Z,101631.23
2019-01-21T05:21:33.817Z,101629.22
2019-01-21T05:22:39.308Z,101632.91
2019-01-21T05:23:41.337Z,101635.88
2019-01-21T05:24:43.384Z,101637.73
2019-01-21T05:25:45.401Z,101639.41
2019-01-21T05:26:47.882Z,101625.11
2019-01-21T05:27:49.900Z,101621.58
2019-01-21T05:28:51.942Z,101620.66
2019-01-21T05:29:53.876Z,101613.23
2019-01-21T05:30:56.223Z,101615.45
2019-01-21T05:31:58.635Z,101609.33
2019-01-21T05:33:00.668Z,101619.36
2019-01-21T05:34:02.721Z,101623.26
2019-01-21T05:35:04.739Z,101616.00
2019-01-21T05:36:06.751Z,101622.88
2019-01-21T05:37:08.777Z,101614.70
2019-01-21T05:38:10.734Z,101622.12
2019-01-21T05:39:14.116Z,101621.95
2019-01-21T05:40:16.107Z,101619.53
2019-01-21T05:41:18.048Z,101615.63
2019-01-21T05:42:20.059Z,101615.08
2019-01-21T05:43:22.023Z,101615.08
2019-01-21T05:44:24.321Z,101614.33
2019-01-21T05:45:26.276Z,101616.93
2019-01-21T05:46:28.216Z,101613.78
2019-01-21T05:47:30.155Z,101607.83
2019-01-21T05:48:32.187Z,101609.50
2019-01-21T05:49:34.166Z,101614.33
2019-01-21T05:50:36.181Z,101612.31
2019-01-21T05:51:38.487Z,101612.10
2019-01-21T05:52:40.498Z,101610.05
2019-01-21T05:53:42.562Z,101617.85
2019-01-21T05:54:46.316Z,101620.28
2019-01-21T05:55:48.340Z,101620.11
2019-01-21T05:56:50.275Z,101624.56
2019-01-21T05:57:52.219Z,101625.86
2019-01-21T05:58:54.377Z,101619.36
2019-01-21T05:59:56.446Z,101622.89
2019-01-21T06:01:02.206Z,101619.36
2019-01-21T06:02:04.150Z,101623.09
2019-01-21T06:03:06.113Z,101616.77
2019-01-21T06:04:09.642Z,101614.92
2019-01-21T06:05:11.611Z,101619.53
2019-01-21T06:06:13.551Z,101622.14
2019-01-21T06:07:15.498Z,101618.61
2019-01-21T06:08:17.508Z,101617.31
2019-01-21T06:09:19.460Z,101617.69
2019-01-21T06:10:21.454Z,101623.64
2019-01-21T06:11:23.502Z,101623.27
2019-01-21T06:12:25.508Z,101615.25
2019-01-21T06:13:27.456Z,101618.44
2019-01-21T06:14:29.442Z,101618.98
2019-01-21T06:15:31.547Z,101616.38
2019-01-21T06:16:33.509Z,101608.58
2019-01-21T06:17:35.446Z,101614.92
2019-01-21T06:18:37.439Z,101610.64
2019-01-21T06:19:39.474Z,101611.94
2019-01-21T06:20:44.365Z,101608.59
2019-01-21T06:21:46.388Z,101609.72
2019-01-21T06:22:50.443Z,101609.52
2019-01-21T06:23:52.473Z,101609.14
2019-01-21T06:24:54.486Z,101612.66
2019-01-21T06:25:56.458Z,101609.14
2019-01-21T06:26:58.400Z,101600.95
2019-01-21T06:28:00.335Z,101601.33
2019-01-21T06:29:02.279Z,101599.11
2019-01-21T06:30:04.240Z,101603.55
2019-01-21T06:31:06.222Z,101597.05
2019-01-21T06:32:08.180Z,101593.53
2019-01-21T06:33:10.110Z,101587.95
2019-01-21T06:34:12.060Z,101587.95
2019-01-21T06:35:14.001Z,101588.33
2019-01-21T06:36:15.978Z,101582.20
2019-01-21T06:37:17.925Z,101580.90
2019-01-21T06:38:19.860Z,101585.93
2019-01-21T06:39:21.810Z,101590.75
2019-01-21T06:40:23.757Z,101592.61
2019-01-21T06:41:25.718Z,101592.61
2019-01-21T06:42:27.662Z,101593.91
2019-01-21T06:43:29.602Z,101594.83
2019-01-21T06:44:31.540Z,101596.13
2019-01-21T06:45:33.463Z,101600.78
2019-01-21T06:46:35.424Z,101604.31
2019-01-21T06:47:37.381Z,101605.06
2019-01-21T06:48:39.318Z,101613.41
2019-01-21T06:49:41.249Z,101613.41
2019-01-21T06:50:43.202Z,101614.72
2019-01-21T06:51:45.188Z,101605.06
2019-01-21T06:52:47.238Z,101611.56
2019-01-21T06:53:49.185Z,101602.84
2019-01-21T06:54:51.210Z,101601.70
2019-01-21T06:55:53.162Z,101604.89
2019-01-21T06:56:57.800Z,101595.78
2019-01-21T06:57:59.807Z,101597.25
2019-01-21T06:59:01.850Z,101596.33
2019-01-21T07:00:03.804Z,101598.93
2019-01-21T07:01:05.815Z,101601.91
2019-01-21T07:02:07.802Z,101596.33
2019-01-21T07:03:09.757Z,101591.84
2019-01-21T07:04:11.687Z,101600.02
2019-01-21T07:05:13.629Z,101603.00
2019-01-21T07:06:15.591Z,101603.92
2019-01-21T07:07:17.552Z,101603.00
2019-01-21T07:08:19.530Z,101601.16
2019-01-21T07:09:21.473Z,101598.75
2019-01-21T07:10:23.407Z,101603.41
2019-01-21T07:11:25.365Z,101606.01
2019-01-21T07:12:27.422Z,101608.61
2019-01-21T07:13:29.363Z,101611.96
2019-01-21T07:14:31.284Z,101616.61
2019-01-21T07:15:33.227Z,101608.64
2019-01-21T07:16:35.251Z,101601.17
2019-01-21T07:17:37.410Z,101607.13
2019-01-21T07:18:40.736Z,101602.67
2019-01-21T07:19:42.802Z,101607.88
2019-01-21T07:20:48.221Z,101608.63
2019-01-21T07:21:50.154Z,101613.08
2019-01-21T07:22:52.129Z,101601.58
2019-01-21T07:23:54.125Z,101607.53
2019-01-21T07:24:56.074Z,101605.30
2019-01-21T07:25:58.022Z,101606.98
2019-01-21T07:26:59.971Z,101601.23
2019-01-21T07:28:01.953Z,101602.91
2019-01-21T07:29:03.898Z,101601.06
2019-01-21T07:30:05.922Z,101603.66
2019-01-21T07:31:07.937Z,101602.36
2019-01-21T07:32:09.866Z,101600.52
2019-01-21T07:33:11.826Z,101603.11
2019-01-21T07:34:13.765Z,101598.11
2019-01-21T07:35:15.709Z,101603.31
2019-01-21T07:36:19.589Z,101599.78
2019-01-21T07:37:21.325Z,101597.53
2019-01-21T07:38:23.294Z,101597.53
2019-01-21T07:39:25.233Z,101597.91
2019-01-21T07:40:27.186Z,101594.00
2019-01-21T07:41:29.333Z,101596.23
2019-01-21T07:42:31.274Z,101596.60
2019-01-21T07:43:33.270Z,101590.85
2019-01-21T07:44:35.229Z,101589.93
2019-01-21T07:45:41.258Z,101587.33
2019-01-21T07:46:40.875Z,101588.63
2019-01-21T07:47:42.820Z,101584.93
2019-01-21T07:48:44.891Z,101585.86
2019-01-21T07:49:46.853Z,101587.91
2019-01-21T07:50:48.797Z,101584.55
2019-01-21T07:51:50.735Z,101584.93
2019-01-21T07:52:52.679Z,101583.80
2019-01-21T07:53:54.655Z,101580.28
2019-01-21T07:54:56.581Z,101578.05
2019-01-21T07:55:58.536Z,101579.36
2019-01-21T07:57:00.473Z,101581.20
2019-01-21T07:58:02.445Z,101587.53
2019-01-21T07:59:04.471Z,101582.33
2019-01-21T08:00:06.461Z,101587.53
2019-01-21T08:01:10.215Z,101591.43
2019-01-21T08:02:12.373Z,101581.41
2019-01-21T08:03:14.313Z,101585.69
2019-01-21T08:04:16.299Z,101581.41
2019-01-21T08:05:18.245Z,101590.50
2019-01-21T08:06:20.185Z,101582.16
2019-01-21T08:07:22.150Z,101585.30
2019-01-21T08:08:24.289Z,101587.36
2019-01-21T08:09:26.325Z,101585.30
2019-01-21T08:10:28.291Z,101591.43
2019-01-21T08:11:30.413Z,101583.26
2019-01-21T08:12:32.367Z,101593.66
2019-01-21T08:13:34.309Z,101589.75
2019-01-21T08:14:36.271Z,101591.05
2019-01-21T08:15:38.219Z,101589.75
2019-01-21T08:16:40.177Z,101588.83
2019-01-21T08:17:42.129Z,101587.53
2019-01-21T08:18:44.075Z,101584.93
2019-01-21T08:19:46.065Z,101586.23
2019-01-21T08:20:48.064Z,101578.80
2019-01-21T08:21:50.248Z,101583.26
2019-01-21T08:22:52.195Z,101591.61
2019-01-21T08:23:54.154Z,101581.95
2019-01-21T08:24:56.118Z,101581.58
2019-01-21T08:25:58.057Z,101586.41
2019-01-21T08:27:00.002Z,101581.95
2019-01-21T08:28:01.943Z,101586.58
2019-01-21T08:29:03.879Z,101584.35
2019-01-21T08:30:05.841Z,101577.86
2019-01-21T08:31:07.802Z,101576.93
2019-01-21T08:32:09.736Z,101576.00
2019-01-21T08:33:11.675Z,101576.55
2019-01-21T08:34:13.619Z,101576.18
2019-01-21T08:35:15.599Z,101580.08
2019-01-21T08:36:17.534Z,101578.03
2019-01-21T08:37:19.484Z,101580.29
2019-01-21T08:38:21.428Z,101581.77
2019-01-21T08:39:23.380Z,101583.98
2019-01-21T08:40:25.360Z,101582.69
2019-01-21T08:41:27.324Z,101583.23
2019-01-21T08:42:29.348Z,101578.41
2019-01-21T08:43:31.286Z,101575.81
2019-01-21T08:44:36.608Z,101574.89
2019-01-21T08:45:38.572Z,101578.78
2019-01-21T08:46:40.514Z,101574.13
2019-01-21T08:47:42.452Z,101578.41
2019-01-21T08:48:44.405Z,101583.61
2019-01-21T08:49:46.445Z,101580.09
2019-01-21T08:50:48.518Z,101579.34
2019-01-21T08:51:50.533Z,101581.94
2019-01-21T08:52:52.472Z,101577.28
2019-01-21T08:53:54.414Z,101582.11
2019-01-21T08:54:56.430Z,101571.33
2019-01-21T08:55:58.405Z,101573.73
2019-01-21T08:57:00.367Z,101568.33
2019-01-21T08:58:02.308Z,101570.34
2019-01-21T08:59:04.293Z,101565.15
2019-01-21T09:00:06.494Z,101564.19
2019-01-21T09:01:08.468Z,101564.53
2019-01-21T09:02:10.422Z,101567.89
2019-01-21T09:03:14.569Z,101568.27
2019-01-21T09:04:16.147Z,101563.79
2019-01-21T09:05:18.080Z,101560.44
2019-01-21T09:06:20.070Z,101558.92
2019-01-21T09:07:22.029Z,101565.77
2019-01-21T09:08:25.653Z,101550.71
2019-01-21T09:09:27.588Z,101554.82
2019-01-21T09:10:31.218Z,101554.82
2019-01-21T09:11:33.198Z,101554.99
2019-01-21T09:12:35.167Z,101553.31
2019-01-21T09:13:37.102Z,101548.11
2019-01-21T09:14:39.046Z,101552.02
2019-01-21T09:15:44.102Z,101549.79
2019-01-21T09:16:46.065Z,101551.63
2019-01-21T09:17:48.003Z,101556.29
2019-01-21T09:18:49.937Z,101555.37
2019-01-21T09:19:51.878Z,101553.52
2019-01-21T09:20:53.883Z,101553.89
2019-01-21T09:21:55.868Z,101556.50
2019-01-21T09:22:57.822Z,101558.14
2019-01-21T09:24:02.806Z,101559.81
2019-01-21T09:25:04.771Z,101558.72
2019-01-21T09:26:06.714Z,101560.02
2019-01-21T09:27:08.690Z,101557.62
2019-01-21T09:28:10.710Z,101559.30
2019-01-21T09:29:12.648Z,101561.36
2019-01-21T09:30:14.599Z,101565.27
2019-01-21T09:31:16.555Z,101564.71
2019-01-21T09:32:18.610Z,101562.87
2019-01-21T09:33:20.552Z,101559.72
2019-01-21T09:34:22.494Z,101563.99
2019-01-21T09:35:24.435Z,101562.14
2019-01-21T09:36:26.388Z,101562.52
2019-01-21T09:37:28.694Z,101559.00
2019-01-21T09:38:30.690Z,101561.02
2019-01-21T09:39:32.642Z,101559.92
2019-01-21T09:40:34.607Z,101562.52
2019-01-21T09:41:36.562Z,101564.20
2019-01-21T09:42:38.563Z,101562.52
2019-01-21T09:43:40.577Z,101560.64
2019-01-21T09:44:42.538Z,101554.51
2019-01-21T09:45:44.489Z,101555.27
2019-01-21T09:46:47.398Z,101555.64
2019-01-21T09:47:49.445Z,101557.14
2019-01-21T09:48:51.389Z,101557.14
2019-01-21T09:49:53.321Z,101558.06
2019-01-21T09:50:55.281Z,101554.75
2019-01-21T09:51:57.290Z,101556.05
2019-01-21T09:52:59.266Z,101557.73
2019-01-21T09:54:01.575Z,101552.90
2019-01-21T09:55:03.607Z,101556.63
2019-01-21T09:56:05.528Z,101555.67
2019-01-21T09:57:07.469Z,101556.80
2019-01-21T09:58:09.451Z,101554.20
2019-01-21T09:59:11.951Z,101554.20
2019-01-21T10:00:13.895Z,101556.80
2019-01-21T10:01:15.839Z,101549.38
2019-01-21T10:02:17.772Z,101547.52
2019-01-21T10:03:19.737Z,101544.92
2019-01-21T10:04:25.059Z,101546.59
2019-01-21T10:05:27.064Z,101541.77
2019-01-21T10:06:29.010Z,101548.27
2019-01-21T10:07:31.287Z,101544.75
2019-01-21T10:08:33.360Z,101546.05
2019-01-21T10:09:35.310Z,101548.65
2019-01-21T10:10:37.308Z,101546.42
2019-01-21T10:11:39.329Z,101544.20
2019-01-21T10:12:41.349Z,101543.83
2019-01-21T10:13:43.326Z,101543.45
2019-01-21T10:14:45.263Z,101541.60
2019-01-21T10:15:47.219Z,101539.00
2019-01-21T10:16:49.175Z,101531.58
2019-01-21T10:17:51.133Z,101536.78
2019-01-21T10:18:53.117Z,101533.42
2019-01-21T10:19:55.079Z,101533.80
2019-01-21T10:20:57.093Z,101536.03
2019-01-21T10:21:59.043Z,101536.03
2019-01-21T10:23:00.988Z,101535.65
2019-01-21T10:24:02.998Z,101532.13
2019-01-21T10:25:04.963Z,101529.15
2019-01-21T10:26:06.946Z,101531.20
2019-01-21T10:27:09.141Z,101526.92
2019-01-21T10:28:11.076Z,101533.98
2019-01-21T10:29:13.053Z,101525.25
2019-01-21T10:30:15.001Z,101529.32
2019-01-21T10:31:17.017Z,101525.80
2019-01-21T10:32:18.966Z,101522.45
2019-01-21T10:33:20.907Z,101523.92
2019-01-21T10:34:23.788Z,101522.45
2019-01-21T10:35:25.891Z,101513.89
2019-01-21T10:36:27.825Z,101518.34
2019-01-21T10:37:29.784Z,101516.08
2019-01-21T10:38:33.011Z,101515.70
2019-01-21T10:39:35.041Z,101514.78
2019-01-21T10:40:36.990Z,101515.33
2019-01-21T10:41:38.949Z,101510.67
2019-01-21T10:42:40.909Z,101512.18
2019-01-21T10:43:42.859Z,101508.83
2019-01-21T10:44:44.826Z,101510.84
2019-01-21T10:45:46.773Z,101508.03
2019-01-21T10:46:48.709Z,101506.36
2019-01-21T10:47:50.664Z,101507.45
2019-01-21T10:48:52.611Z,101501.49
2019-01-21T10:49:57.419Z,101500.36
2019-01-21T10:50:58.397Z,101498.69
2019-01-21T10:52:00.400Z,101501.11
2019-01-21T10:53:02.369Z,101496.83
2019-01-21T10:54:04.347Z,101503.34
2019-01-21T10:55:06.325Z,101501.66
2019-01-21T10:56:08.262Z,101498.68
2019-01-21T10:57:10.225Z,101493.64
2019-01-21T10:58:12.155Z,101485.84
2019-01-21T10:59:14.696Z,101491.80
2019-01-21T11:00:16.840Z,101487.52
2019-01-21T11:01:18.863Z,101488.06
2019-01-21T11:02:20.902Z,101483.62
2019-01-21T11:03:24.326Z,101481.02
2019-01-21T11:04:26.257Z,101484.37
2019-01-21T11:05:28.739Z,101484.37
2019-01-21T11:06:30.715Z,101480.84
2019-01-21T11:07:32.683Z,101477.32
2019-01-21T11:08:34.661Z,101479.38
2019-01-21T11:09:36.799Z,101482.53
2019-01-21T11:10:38.840Z,101483.28
2019-01-21T11:11:40.785Z,101475.85
2019-01-21T11:12:43.664Z,101477.50
2019-01-21T11:13:45.590Z,101476.20
2019-01-21T11:14:47.522Z,101471.75
2019-01-21T11:15:49.478Z,101472.12
2019-01-21T11:16:51.419Z,101476.03
2019-01-21T11:17:54.906Z,101473.80
2019-01-21T11:18:56.851Z,101473.80
2019-01-21T11:20:03.963Z,101468.98
2019-01-21T11:21:02.490Z,101473.26
2019-01-21T11:22:04.436Z,101468.43
2019-01-21T11:23:06.548Z,101471.03
2019-01-21T11:24:08.631Z,101466.59
2019-01-21T11:25:10.576Z,101467.34
2019-01-21T11:26:13.048Z,101468.27
2019-01-21T11:27:16.316Z,101466.04
2019-01-21T11:28:18.284Z,101461.22
2019-01-21T11:29:20.312Z,101465.49
2019-01-21T11:30:22.314Z,101469.39
2019-01-21T11:31:24.286Z,101465.88
2019-01-21T11:32:26.212Z,101461.97
2019-01-21T11:33:28.161Z,101464.95
2019-01-21T11:34:30.112Z,101459.74
2019-01-21T11:35:32.088Z,101459.58
2019-01-21T11:36:34.068Z,101460.13
2019-01-21T11:37:36.014Z,101464.02
2019-01-21T11:38:37.958Z,101466.63
2019-01-21T11:39:39.901Z,101454.37
2019-01-21T11:40:41.844Z,101460.50
2019-01-21T11:41:43.815Z,101460.87
2019-01-21T11:42:45.748Z,101454.75
2019-01-21T11:43:47.716Z,101456.05
2019-01-21T11:44:49.757Z,101455.67
2019-01-21T11:45:51.711Z,101454.75
2019-01-21T11:46:53.696Z,101453.45
2019-01-21T11:47:55.690Z,101447.70
2019-01-21T11:48:57.647Z,101449.92
2019-01-21T11:49:59.593Z,101454.20